Terminal Aerodrome Forecast
Issued by NWS

Home | Current Version | Previous Version | Text Only | Print | Product List | Glossary On
Versions: 1 2 3 4 5 6 7 8 9 10 11 12 13 14 15 16 17 18 19 20 21 22 23 24 25 26 27 28
000
FTUS46 KMFR 011125
TAFOTH
TAF
KOTH 011125Z 0112/0212 36010KT 1SM BR OVC002
     FM011900 35018G30KT P6SM SCT004
     FM020000 36018G30KT P6SM OVC006
     FM020400 36011KT P6SM OVC005
     FM020900 VRB03KT P6SM OVC004
     FM021100 VRB03KT 1SM BR OVC003=

USA.gov is the U.S. government's official web portal to all federal, state and local government web resources and services.